首页
METAR-TAF:

METAR-TAF

机场 :

塞雷茨·卡马爵士国际机场

嘉柏隆里, 博兹瓦纳

纬度: 24-13S, 经度: 025-55E, 海拔: 1005米

当前天气观测

该预报发布于15分钟前的06:00 UTC
风速3节,风向南转南东,在东转东南之间变化
温度 12°C
湿度 62%
气压 1027 hPa
能见度10公里或以上
1500米以下无云,无积雨云

METAR: FBSK 250600Z 16003KT 120V190 CAVOK 12/05 Q1027 NOSIG

时间: 08:15 (06:15 UTC)

预报

该预报发布于2小时和15分钟前的04:00 UTC
预报有效从25日的 06点(UTC)到 26日的 12点(UTC)
风速5节,风向
能见度10公里或以上
1500米以下无云,无积雨云

TAF: FBSK 250400Z 2506/2612 09005KT CAVOK

超过4000个机场的气象观测和天气预报(METAR&TAF报告)。

可查询的气象台以黄色和红色小点在地图上表示。

将鼠标移到小点上方,可查看气象台名称。

然后点击查看天气观测和预报。

如需切换地图:点击带黑十字的绿色按钮放大地图;点击带横线的绿色按钮缩小地图;或者点击绿色箭头查看邻近地区的地图。


METAR-TAF: